Terminal Aerodrome Forecast
Issued by NWS

Home | Current Version | Previous Version | Text Only | Print | Product List | Glossary On
Versions: 1 2 3 4 5 6 7 8 9 10 11 12 13 14 15
000
FTUS46 KSEW 181100
TAFBFI
TAF
KBFI 181120Z 1812/1912 00000KT P6SM FEW006 OVC080
      TEMPO 1812/1814 6SM BR BKN006 OVC080
     FM181500 18004KT P6SM OVC009
     FM181900 18005KT P6SM OVC025
     FM182300 19005KT P6SM SCT030 OVC060
     FM190700 15004KT P6SM BKN025 OVC040=

USA.gov is the U.S. government's official web portal to all federal, state and local government web resources and services.